sensor_id;sensor_type;location;lat;lon;timestamp;pressure;altitude;pressure_sealevel;temperature;humidity
17311;BME280;8773;43.300;0.394;2023-02-18T00:01:35;101217.19;;;8.19;58.44
17311;BME280;8773;43.300;0.394;2023-02-18T00:04:03;101218.13;;;8.18;59.47
17311;BME280;8773;43.300;0.394;2023-02-18T00:06:34;101227.28;;;8.01;59.83
17311;BME280;8773;43.300;0.394;2023-02-18T00:09:03;101219.19;;;8.02;58.82
17311;BME280;8773;43.300;0.394;2023-02-18T00:11:34;101223.31;;;7.94;59.69
17311;BME280;8773;43.300;0.394;2023-02-18T00:14:05;101227.97;;;7.90;59.44
17311;BME280;8773;43.300;0.394;2023-02-18T00:16:34;101220.50;;;7.83;59.42
17311;BME280;8773;43.300;0.394;2023-02-18T00:19:04;101224.13;;;7.82;59.63
17311;BME280;8773;43.300;0.394;2023-02-18T00:21:34;101222.31;;;7.82;59.82
17311;BME280;8773;43.300;0.394;2023-02-18T00:24:03;101214.53;;;7.79;59.85
17311;BME280;8773;43.300;0.394;2023-02-18T00:26:32;101211.44;;;7.72;60.50
17311;BME280;8773;43.300;0.394;2023-02-18T00:29:00;101216.19;;;7.67;60.50
17311;BME280;8773;43.300;0.394;2023-02-18T00:31:31;101203.00;;;7.66;59.78
17311;BME280;8773;43.300;0.394;2023-02-18T00:34:00;101217.34;;;7.63;60.38
17311;BME280;8773;43.300;0.394;2023-02-18T00:36:29;101211.34;;;7.47;61.05
17311;BME280;8773;43.300;0.394;2023-02-18T00:38:59;101213.41;;;7.56;60.98
17311;BME280;8773;43.300;0.394;2023-02-18T00:41:30;101209.72;;;7.59;60.76
17311;BME280;8773;43.300;0.394;2023-02-18T00:43:58;101222.66;;;7.63;60.21
17311;BME280;8773;43.300;0.394;2023-02-18T00:46:27;101217.25;;;7.65;60.48
17311;BME280;8773;43.300;0.394;2023-02-18T00:48:55;101209.59;;;7.60;59.26
17311;BME280;8773;43.300;0.394;2023-02-18T00:51:24;101205.44;;;7.56;60.26
17311;BME280;8773;43.300;0.394;2023-02-18T00:53:52;101204.69;;;7.54;60.05
17311;BME280;8773;43.300;0.394;2023-02-18T00:56:22;101202.97;;;7.53;60.81
17311;BME280;8773;43.300;0.394;2023-02-18T00:58:50;101188.94;;;7.51;59.72
17311;BME280;8773;43.300;0.394;2023-02-18T01:01:19;101189.59;;;7.55;59.75
17311;BME280;8773;43.300;0.394;2023-02-18T01:03:47;101198.44;;;7.55;60.52
17311;BME280;8773;43.300;0.394;2023-02-18T01:06:15;101197.88;;;7.50;60.75
17311;BME280;8773;43.300;0.394;2023-02-18T01:08:44;101192.00;;;7.45;60.02
17311;BME280;8773;43.300;0.394;2023-02-18T01:11:12;101192.50;;;7.37;60.60
17311;BME280;8773;43.300;0.394;2023-02-18T01:13:42;101195.44;;;7.33;61.10
17311;BME280;8773;43.300;0.394;2023-02-18T01:16:10;101187.88;;;7.27;60.87
17311;BME280;8773;43.300;0.394;2023-02-18T01:18:38;101197.09;;;7.21;61.71
17311;BME280;8773;43.300;0.394;2023-02-18T01:21:07;101194.94;;;7.14;61.24
17311;BME280;8773;43.300;0.394;2023-02-18T01:23:37;101186.88;;;7.15;61.45
17311;BME280;8773;43.300;0.394;2023-02-18T01:26:05;101186.88;;;7.15;60.69
17311;BME280;8773;43.300;0.394;2023-02-18T01:28:34;101183.19;;;7.18;60.52
17311;BME280;8773;43.300;0.394;2023-02-18T01:31:06;101184.13;;;7.17;60.92
17311;BME280;8773;43.300;0.394;2023-02-18T01:33:35;101181.75;;;7.12;61.16
17311;BME280;8773;43.300;0.394;2023-02-18T01:36:04;101178.66;;;7.05;60.77
17311;BME280;8773;43.300;0.394;2023-02-18T01:38:33;101180.09;;;6.83;61.81
17311;BME280;8773;43.300;0.394;2023-02-18T01:41:01;101181.16;;;6.66;62.03
17311;BME280;8773;43.300;0.394;2023-02-18T01:43:31;101178.50;;;6.66;62.02
17311;BME280;8773;43.300;0.394;2023-02-18T01:46:06;101186.63;;;6.77;62.26
17311;BME280;8773;43.300;0.394;2023-02-18T01:48:38;101180.00;;;6.84;61.58
17311;BME280;8773;43.300;0.394;2023-02-18T01:51:10;101186.44;;;6.80;61.16
17311;BME280;8773;43.300;0.394;2023-02-18T01:53:45;101176.38;;;6.85;61.06
17311;BME280;8773;43.300;0.394;2023-02-18T01:56:20;101184.72;;;6.79;61.41
17311;BME280;8773;43.300;0.394;2023-02-18T01:58:50;101179.66;;;6.76;60.47
17311;BME280;8773;43.300;0.394;2023-02-18T02:01:22;101188.34;;;6.78;61.58
17311;BME280;8773;43.300;0.394;2023-02-18T02:03:50;101182.88;;;6.67;60.91
17311;BME280;8773;43.300;0.394;2023-02-18T02:06:21;101183.63;;;6.69;61.21
17311;BME280;8773;43.300;0.394;2023-02-18T02:08:51;101180.41;;;6.64;61.52
17311;BME280;8773;43.300;0.394;2023-02-18T02:11:27;101176.81;;;6.65;61.13
17311;BME280;8773;43.300;0.394;2023-02-18T02:14:09;101176.72;;;6.66;61.04
17311;BME280;8773;43.300;0.394;2023-02-18T02:16:49;101172.81;;;6.72;60.69
17311;BME280;8773;43.300;0.394;2023-02-18T02:19:40;101168.38;;;6.72;61.40
17311;BME280;8773;43.300;0.394;2023-02-18T02:22:39;101166.91;;;6.81;60.31
17311;BME280;8773;43.300;0.394;2023-02-18T02:25:18;101167.63;;;6.70;61.22
17311;BME280;8773;43.300;0.394;2023-02-18T02:31:21;101166.38;;;6.62;61.20
17311;BME280;8773;43.300;0.394;2023-02-18T02:34:18;101161.81;;;6.64;61.27
17311;BME280;8773;43.300;0.394;2023-02-18T02:36:52;101156.53;;;6.50;62.28
17311;BME280;8773;43.300;0.394;2023-02-18T02:39:26;101159.25;;;6.48;62.07
17311;BME280;8773;43.300;0.394;2023-02-18T02:42:02;101158.38;;;6.33;62.92
17311;BME280;8773;43.300;0.394;2023-02-18T02:44:38;101157.63;;;6.31;62.58
17311;BME280;8773;43.300;0.394;2023-02-18T02:47:18;101152.78;;;6.38;61.99
17311;BME280;8773;43.300;0.394;2023-02-18T02:49:52;101155.19;;;6.42;62.00
17311;BME280;8773;43.300;0.394;2023-02-18T02:52:29;101154.25;;;6.43;61.62
17311;BME280;8773;43.300;0.394;2023-02-18T02:54:58;101151.84;;;6.25;62.22
17311;BME280;8773;43.300;0.394;2023-02-18T02:57:54;101158.19;;;6.22;62.93
17311;BME280;8773;43.300;0.394;2023-02-18T03:00:32;101156.50;;;6.21;62.43
17311;BME280;8773;43.300;0.394;2023-02-18T03:03:30;101156.13;;;6.27;62.01
17311;BME280;8773;43.300;0.394;2023-02-18T03:06:24;101153.81;;;6.35;61.78
17311;BME280;8773;43.300;0.394;2023-02-18T03:09:00;101150.81;;;6.27;62.29
17311;BME280;8773;43.300;0.394;2023-02-18T03:11:40;101141.72;;;6.31;61.91
17311;BME280;8773;43.300;0.394;2023-02-18T03:14:16;101139.50;;;6.38;61.35
17311;BME280;8773;43.300;0.394;2023-02-18T03:16:52;101137.72;;;6.38;61.57
17311;BME280;8773;43.300;0.394;2023-02-18T03:19:30;101140.97;;;6.43;61.25
17311;BME280;8773;43.300;0.394;2023-02-18T03:22:04;101141.13;;;6.40;61.02
17311;BME280;8773;43.300;0.394;2023-02-18T03:24:37;101134.63;;;6.32;61.44
17311;BME280;8773;43.300;0.394;2023-02-18T03:27:10;101134.91;;;6.27;61.83
17311;BME280;8773;43.300;0.394;2023-02-18T03:29:44;101131.47;;;6.25;61.91
17311;BME280;8773;43.300;0.394;2023-02-18T03:32:15;101124.09;;;6.30;61.91
17311;BME280;8773;43.300;0.394;2023-02-18T03:34:50;101125.06;;;6.29;61.71
17311;BME280;8773;43.300;0.394;2023-02-18T03:37:21;101123.81;;;6.21;61.66
17311;BME280;8773;43.300;0.394;2023-02-18T03:39:53;101131.09;;;6.17;61.60
17311;BME280;8773;43.300;0.394;2023-02-18T03:42:24;101133.09;;;6.14;61.55
17311;BME280;8773;43.300;0.394;2023-02-18T03:44:53;101122.25;;;6.02;62.25
17311;BME280;8773;43.300;0.394;2023-02-18T03:47:23;101132.66;;;5.91;62.73
17311;BME280;8773;43.300;0.394;2023-02-18T03:49:51;101136.16;;;5.77;62.84
17311;BME280;8773;43.300;0.394;2023-02-18T03:52:21;101139.75;;;5.76;62.57
17311;BME280;8773;43.300;0.394;2023-02-18T03:54:49;101136.00;;;5.65;62.93
17311;BME280;8773;43.300;0.394;2023-02-18T03:57:17;101139.06;;;5.73;62.66
17311;BME280;8773;43.300;0.394;2023-02-18T03:59:45;101130.84;;;5.77;62.31
17311;BME280;8773;43.300;0.394;2023-02-18T04:02:14;101121.97;;;5.78;62.30
17311;BME280;8773;43.300;0.394;2023-02-18T04:04:42;101129.09;;;5.62;62.88
17311;BME280;8773;43.300;0.394;2023-02-18T04:07:10;101134.13;;;5.67;63.08
17311;BME280;8773;43.300;0.394;2023-02-18T04:09:40;101129.88;;;5.64;63.05
17311;BME280;8773;43.300;0.394;2023-02-18T04:12:08;101138.56;;;5.66;62.88
17311;BME280;8773;43.300;0.394;2023-02-18T04:14:36;101131.41;;;5.68;62.37
17311;BME280;8773;43.300;0.394;2023-02-18T04:17:04;101123.44;;;5.68;62.27
17311;BME280;8773;43.300;0.394;2023-02-18T04:19:32;101125.91;;;5.71;62.41
17311;BME280;8773;43.300;0.394;2023-02-18T04:22:01;101125.41;;;5.65;62.51
17311;BME280;8773;43.300;0.394;2023-02-18T04:24:29;101123.03;;;5.60;62.62
17311;BME280;8773;43.300;0.394;2023-02-18T04:26:58;101128.84;;;5.67;62.51
17311;BME280;8773;43.300;0.394;2023-02-18T04:29:26;101128.75;;;5.68;62.18
17311;BME280;8773;43.300;0.394;2023-02-18T04:31:54;101128.41;;;5.59;62.46
17311;BME280;8773;43.300;0.394;2023-02-18T04:34:23;101125.06;;;5.41;63.51
17311;BME280;8773;43.300;0.394;2023-02-18T04:36:51;101125.94;;;5.26;63.77
17311;BME280;8773;43.300;0.394;2023-02-18T04:39:19;101138.06;;;5.46;63.30
17311;BME280;8773;43.300;0.394;2023-02-18T04:41:47;101119.81;;;5.55;62.89
17311;BME280;8773;43.300;0.394;2023-02-18T04:44:16;101132.34;;;5.67;61.98
17311;BME280;8773;43.300;0.394;2023-02-18T04:46:47;101127.63;;;5.72;62.01
17311;BME280;8773;43.300;0.394;2023-02-18T04:49:15;101134.81;;;5.70;61.93
17311;BME280;8773;43.300;0.394;2023-02-18T04:51:43;101136.69;;;5.68;62.09
17311;BME280;8773;43.300;0.394;2023-02-18T04:54:12;101131.66;;;5.64;62.02
17311;BME280;8773;43.300;0.394;2023-02-18T04:56:40;101130.13;;;5.60;62.22
17311;BME280;8773;43.300;0.394;2023-02-18T04:59:08;101125.28;;;5.52;62.62
17311;BME280;8773;43.300;0.394;2023-02-18T05:01:38;101123.09;;;5.44;62.79
17311;BME280;8773;43.300;0.394;2023-02-18T05:04:07;101126.44;;;5.32;62.91
17311;BME280;8773;43.300;0.394;2023-02-18T05:06:35;101128.69;;;5.24;63.68
17311;BME280;8773;43.300;0.394;2023-02-18T05:09:06;101116.28;;;5.25;63.24
17311;BME280;8773;43.300;0.394;2023-02-18T05:11:34;101125.00;;;5.27;63.31
17311;BME280;8773;43.300;0.394;2023-02-18T05:14:02;101128.50;;;5.27;63.48
17311;BME280;8773;43.300;0.394;2023-02-18T05:16:30;101129.78;;;5.20;63.98
17311;BME280;8773;43.300;0.394;2023-02-18T05:19:00;101127.66;;;5.27;63.25
17311;BME280;8773;43.300;0.394;2023-02-18T05:21:28;101125.00;;;5.27;63.15
17311;BME280;8773;43.300;0.394;2023-02-18T05:23:56;101131.16;;;5.27;63.00
17311;BME280;8773;43.300;0.394;2023-02-18T05:26:25;101133.38;;;5.19;63.30
17311;BME280;8773;43.300;0.394;2023-02-18T05:28:53;101127.06;;;5.22;62.74
17311;BME280;8773;43.300;0.394;2023-02-18T05:31:23;101127.56;;;5.13;63.33
17311;BME280;8773;43.300;0.394;2023-02-18T05:33:51;101129.28;;;5.14;63.43
17311;BME280;8773;43.300;0.394;2023-02-18T05:36:21;101126.91;;;5.09;63.79
17311;BME280;8773;43.300;0.394;2023-02-18T05:38:49;101134.91;;;5.07;63.46
17311;BME280;8773;43.300;0.394;2023-02-18T05:41:17;101136.63;;;5.08;63.41
17311;BME280;8773;43.300;0.394;2023-02-18T05:43:45;101137.84;;;5.03;63.62
17311;BME280;8773;43.300;0.394;2023-02-18T05:46:31;101135.88;;;4.91;63.96
17311;BME280;8773;43.300;0.394;2023-02-18T05:48:59;101125.13;;;4.94;63.96
17311;BME280;8773;43.300;0.394;2023-02-18T05:51:28;101133.84;;;4.96;64.05
17311;BME280;8773;43.300;0.394;2023-02-18T05:53:56;101123.00;;;5.00;63.63
17311;BME280;8773;43.300;0.394;2023-02-18T05:56:25;101128.94;;;5.04;63.50
17311;BME280;8773;43.300;0.394;2023-02-18T05:58:53;101123.66;;;5.04;63.60
17311;BME280;8773;43.300;0.394;2023-02-18T06:01:21;101125.28;;;5.06;63.41
17311;BME280;8773;43.300;0.394;2023-02-18T06:03:49;101118.28;;;5.05;63.61
17311;BME280;8773;43.300;0.394;2023-02-18T06:06:17;101118.56;;;5.01;63.44
17311;BME280;8773;43.300;0.394;2023-02-18T06:08:47;101122.66;;;4.91;63.81
17311;BME280;8773;43.300;0.394;2023-02-18T06:11:15;101115.31;;;4.96;63.82
17311;BME280;8773;43.300;0.394;2023-02-18T06:13:43;101111.03;;;4.93;64.05
17311;BME280;8773;43.300;0.394;2023-02-18T06:16:12;101110.41;;;5.04;63.38
17311;BME280;8773;43.300;0.394;2023-02-18T06:18:40;101109.47;;;5.05;63.46
17311;BME280;8773;43.300;0.394;2023-02-18T06:21:08;101104.88;;;5.08;63.23
17311;BME280;8773;43.300;0.394;2023-02-18T06:23:36;101111.94;;;5.08;63.07
17311;BME280;8773;43.300;0.394;2023-02-18T06:26:06;101108.28;;;5.10;62.85
17311;BME280;8773;43.300;0.394;2023-02-18T06:28:35;101113.56;;;5.10;62.99
17311;BME280;8773;43.300;0.394;2023-02-18T06:31:03;101104.59;;;5.13;62.59
17311;BME280;8773;43.300;0.394;2023-02-18T06:33:32;101105.38;;;5.15;62.89
17311;BME280;8773;43.300;0.394;2023-02-18T06:36:02;101115.03;;;5.16;62.55
17311;BME280;8773;43.300;0.394;2023-02-18T06:38:33;101118.88;;;5.10;62.78
17311;BME280;8773;43.300;0.394;2023-02-18T06:41:01;101110.41;;;5.04;62.91
17311;BME280;8773;43.300;0.394;2023-02-18T06:43:31;101116.16;;;4.96;63.23
17311;BME280;8773;43.300;0.394;2023-02-18T06:45:59;101110.97;;;4.95;62.75
17311;BME280;8773;43.300;0.394;2023-02-18T06:48:27;101111.97;;;4.92;63.04
17311;BME280;8773;43.300;0.394;2023-02-18T06:50:55;101114.47;;;4.95;63.01
17311;BME280;8773;43.300;0.394;2023-02-18T06:53:23;101111.56;;;5.00;62.69
17311;BME280;8773;43.300;0.394;2023-02-18T06:55:51;101117.50;;;5.03;62.66
17311;BME280;8773;43.300;0.394;2023-02-18T06:58:20;101108.81;;;5.01;62.65
17311;BME280;8773;43.300;0.394;2023-02-18T07:00:50;101117.41;;;5.05;62.75
17311;BME280;8773;43.300;0.394;2023-02-18T07:03:18;101120.34;;;5.00;62.74
17311;BME280;8773;43.300;0.394;2023-02-18T07:05:46;101119.81;;;5.09;62.69
17311;BME280;8773;43.300;0.394;2023-02-18T07:08:15;101124.00;;;5.14;62.34
17311;BME280;8773;43.300;0.394;2023-02-18T07:10:43;101118.69;;;5.14;62.53
17311;BME280;8773;43.300;0.394;2023-02-18T07:13:11;101122.53;;;5.08;62.30
17311;BME280;8773;43.300;0.394;2023-02-18T07:15:39;101118.88;;;5.10;62.45
17311;BME280;8773;43.300;0.394;2023-02-18T07:18:09;101116.13;;;5.12;62.49
17311;BME280;8773;43.300;0.394;2023-02-18T07:20:37;101115.34;;;5.26;61.82
17311;BME280;8773;43.300;0.394;2023-02-18T07:23:05;101119.19;;;5.36;61.77
17311;BME280;8773;43.300;0.394;2023-02-18T07:25:33;101123.28;;;5.41;61.81
17311;BME280;8773;43.300;0.394;2023-02-18T07:28:02;101122.63;;;5.22;62.32
17311;BME280;8773;43.300;0.394;2023-02-18T07:30:30;101121.41;;;5.28;62.16
17311;BME280;8773;43.300;0.394;2023-02-18T07:32:58;101124.47;;;5.36;61.70
17311;BME280;8773;43.300;0.394;2023-02-18T07:35:30;101130.28;;;5.42;61.44
17311;BME280;8773;43.300;0.394;2023-02-18T07:37:58;101120.16;;;5.49;61.20
17311;BME280;8773;43.300;0.394;2023-02-18T07:40:28;101131.25;;;5.56;60.67
17311;BME280;8773;43.300;0.394;2023-02-18T07:42:56;101134.75;;;5.56;60.70
17311;BME280;8773;43.300;0.394;2023-02-18T07:45:24;101136.56;;;5.56;60.91
17311;BME280;8773;43.300;0.394;2023-02-18T07:47:53;101136.34;;;5.74;60.50
17311;BME280;8773;43.300;0.394;2023-02-18T07:50:21;101129.63;;;5.83;60.20
17311;BME280;8773;43.300;0.394;2023-02-18T07:52:50;101129.16;;;5.91;60.06
17311;BME280;8773;43.300;0.394;2023-02-18T07:55:18;101130.13;;;5.90;59.52
17311;BME280;8773;43.300;0.394;2023-02-18T07:57:46;101134.13;;;6.11;59.30
17311;BME280;8773;43.300;0.394;2023-02-18T08:00:26;101126.94;;;6.13;59.62
17311;BME280;8773;43.300;0.394;2023-02-18T08:02:54;101130.72;;;6.37;58.93
17311;BME280;8773;43.300;0.394;2023-02-18T08:05:22;101128.66;;;6.42;58.79
17311;BME280;8773;43.300;0.394;2023-02-18T08:07:52;101133.00;;;6.72;58.73
17311;BME280;8773;43.300;0.394;2023-02-18T08:10:20;101129.56;;;6.84;58.83
17311;BME280;8773;43.300;0.394;2023-02-18T08:12:48;101133.16;;;6.83;58.42
17311;BME280;8773;43.300;0.394;2023-02-18T08:15:17;101133.22;;;6.96;57.27
17311;BME280;8773;43.300;0.394;2023-02-18T08:17:45;101136.25;;;7.04;57.19
17311;BME280;8773;43.300;0.394;2023-02-18T08:20:13;101128.78;;;6.96;57.56
17311;BME280;8773;43.300;0.394;2023-02-18T08:22:41;101135.97;;;6.94;57.33
17311;BME280;8773;43.300;0.394;2023-02-18T08:25:11;101135.66;;;7.13;56.96
17311;BME280;8773;43.300;0.394;2023-02-18T08:27:54;101136.91;;;7.34;56.64
17311;BME280;8773;43.300;0.394;2023-02-18T08:30:22;101133.69;;;7.56;55.95
17311;BME280;8773;43.300;0.394;2023-02-18T08:32:51;101126.97;;;7.63;55.77
17311;BME280;8773;43.300;0.394;2023-02-18T08:35:19;101131.69;;;7.72;55.80
17311;BME280;8773;43.300;0.394;2023-02-18T08:37:48;101128.31;;;7.83;55.43
17311;BME280;8773;43.300;0.394;2023-02-18T08:40:21;101129.41;;;8.06;54.40
17311;BME280;8773;43.300;0.394;2023-02-18T08:42:49;101128.53;;;8.18;53.45
17311;BME280;8773;43.300;0.394;2023-02-18T08:45:17;101128.22;;;8.23;54.03
17311;BME280;8773;43.300;0.394;2023-02-18T08:47:46;101120.78;;;8.40;53.20
17311;BME280;8773;43.300;0.394;2023-02-18T08:50:34;101122.63;;;8.76;52.81
17311;BME280;8773;43.300;0.394;2023-02-18T08:53:03;101128.31;;;8.96;52.26
17311;BME280;8773;43.300;0.394;2023-02-18T08:55:33;101120.50;;;9.05;52.00
17311;BME280;8773;43.300;0.394;2023-02-18T08:58:04;101117.91;;;9.17;51.89
17311;BME280;8773;43.300;0.394;2023-02-18T09:00:33;101121.50;;;9.28;51.04
17311;BME280;8773;43.300;0.394;2023-02-18T09:03:01;101123.97;;;9.42;51.65
17311;BME280;8773;43.300;0.394;2023-02-18T09:05:29;101123.28;;;9.52;51.83
17311;BME280;8773;43.300;0.394;2023-02-18T09:07:57;101122.72;;;9.59;51.58
17311;BME280;8773;43.300;0.394;2023-02-18T09:10:25;101127.97;;;9.72;51.24
17311;BME280;8773;43.300;0.394;2023-02-18T09:12:55;101127.50;;;9.78;51.19
17311;BME280;8773;43.300;0.394;2023-02-18T09:15:23;101128.09;;;9.70;51.08
17311;BME280;8773;43.300;0.394;2023-02-18T09:17:51;101123.25;;;9.75;50.99
17311;BME280;8773;43.300;0.394;2023-02-18T09:20:19;101123.78;;;9.92;50.84
17311;BME280;8773;43.300;0.394;2023-02-18T09:22:48;101131.38;;;10.09;50.99
17311;BME280;8773;43.300;0.394;2023-02-18T09:25:16;101118.28;;;10.17;50.78
17311;BME280;8773;43.300;0.394;2023-02-18T09:27:44;101122.41;;;10.32;49.46
17311;BME280;8773;43.300;0.394;2023-02-18T09:30:14;101125.44;;;10.50;49.10
17311;BME280;8773;43.300;0.394;2023-02-18T09:32:42;101125.56;;;10.49;49.88
17311;BME280;8773;43.300;0.394;2023-02-18T09:35:10;101114.16;;;10.47;49.71
17311;BME280;8773;43.300;0.394;2023-02-18T09:37:41;101118.97;;;10.75;50.01
17311;BME280;8773;43.300;0.394;2023-02-18T09:42:49;101120.13;;;11.27;47.53
17311;BME280;8773;43.300;0.394;2023-02-18T09:45:18;101111.56;;;11.44;47.74
17311;BME280;8773;43.300;0.394;2023-02-18T09:47:48;101109.75;;;11.65;46.73
17311;BME280;8773;43.300;0.394;2023-02-18T09:50:19;101108.44;;;11.81;46.73
17311;BME280;8773;43.300;0.394;2023-02-18T09:52:48;101109.66;;;11.97;46.06
17311;BME280;8773;43.300;0.394;2023-02-18T09:55:19;101099.88;;;12.07;46.35
17311;BME280;8773;43.300;0.394;2023-02-18T09:57:50;101115.59;;;12.22;44.79
17311;BME280;8773;43.300;0.394;2023-02-18T10:00:22;101108.34;;;12.33;44.82
17311;BME280;8773;43.300;0.394;2023-02-18T10:02:54;101104.84;;;12.42;45.01
17311;BME280;8773;43.300;0.394;2023-02-18T10:05:23;101106.59;;;12.53;45.13
17311;BME280;8773;43.300;0.394;2023-02-18T10:07:55;101109.34;;;12.63;45.41
17311;BME280;8773;43.300;0.394;2023-02-18T10:10:33;101105.56;;;12.75;44.76
17311;BME280;8773;43.300;0.394;2023-02-18T10:13:03;101099.81;;;12.89;45.32
17311;BME280;8773;43.300;0.394;2023-02-18T10:15:34;101090.66;;;13.01;44.07
17311;BME280;8773;43.300;0.394;2023-02-18T10:18:05;101093.22;;;13.13;44.14
17311;BME280;8773;43.300;0.394;2023-02-18T10:20:41;101093.25;;;13.22;44.03
17311;BME280;8773;43.300;0.394;2023-02-18T10:23:11;101087.16;;;13.30;44.60
17311;BME280;8773;43.300;0.394;2023-02-18T10:25:43;101089.00;;;13.39;44.31
17311;BME280;8773;43.300;0.394;2023-02-18T10:28:12;101088.56;;;13.53;43.72
17311;BME280;8773;43.300;0.394;2023-02-18T10:30:42;101081.22;;;13.65;43.41
17311;BME280;8773;43.300;0.394;2023-02-18T10:33:23;101089.13;;;13.76;42.97
17311;BME280;8773;43.300;0.394;2023-02-18T10:35:58;101085.59;;;13.85;42.44
17311;BME280;8773;43.300;0.394;2023-02-18T10:38:35;101084.44;;;13.97;42.73
17311;BME280;8773;43.300;0.394;2023-02-18T10:41:12;101080.75;;;14.08;41.63
17311;BME280;8773;43.300;0.394;2023-02-18T10:43:48;101079.84;;;14.17;40.90
17311;BME280;8773;43.300;0.394;2023-02-18T10:46:25;101075.44;;;14.26;41.07
17311;BME280;8773;43.300;0.394;2023-02-18T10:49:03;101074.41;;;14.36;42.02
17311;BME280;8773;43.300;0.394;2023-02-18T10:51:35;101070.44;;;14.40;40.94
17311;BME280;8773;43.300;0.394;2023-02-18T10:54:06;101067.72;;;14.50;40.84
17311;BME280;8773;43.300;0.394;2023-02-18T10:56:37;101064.97;;;14.60;40.68
17311;BME280;8773;43.300;0.394;2023-02-18T10:59:10;101058.22;;;14.56;38.37
17311;BME280;8773;43.300;0.394;2023-02-18T11:01:41;101062.91;;;14.71;37.89
17311;BME280;8773;43.300;0.394;2023-02-18T11:04:15;101066.59;;;14.80;37.89
17311;BME280;8773;43.300;0.394;2023-02-18T11:06:46;101064.16;;;14.87;37.24
17311;BME280;8773;43.300;0.394;2023-02-18T11:09:35;101062.09;;;14.98;37.45
17311;BME280;8773;43.300;0.394;2023-02-18T11:12:13;101060.84;;;15.11;38.38
17311;BME280;8773;43.300;0.394;2023-02-18T11:14:44;101053.88;;;15.18;38.46
17311;BME280;8773;43.300;0.394;2023-02-18T11:17:20;101051.25;;;15.26;38.07
17311;BME280;8773;43.300;0.394;2023-02-18T11:19:54;101051.63;;;15.31;37.43
17311;BME280;8773;43.300;0.394;2023-02-18T11:22:24;101040.44;;;15.44;37.40
17311;BME280;8773;43.300;0.394;2023-02-18T11:24:57;101042.00;;;15.46;36.22
17311;BME280;8773;43.300;0.394;2023-02-18T11:27:30;101041.56;;;15.33;34.45
17311;BME280;8773;43.300;0.394;2023-02-18T11:30:01;101034.72;;;15.38;35.66
17311;BME280;8773;43.300;0.394;2023-02-18T11:32:34;101036.91;;;15.43;35.53
17311;BME280;8773;43.300;0.394;2023-02-18T11:35:03;101034.84;;;15.55;34.47
17311;BME280;8773;43.300;0.394;2023-02-18T11:37:33;101035.66;;;15.73;34.70
17311;BME280;8773;43.300;0.394;2023-02-18T11:40:03;101027.38;;;15.92;34.26
17311;BME280;8773;43.300;0.394;2023-02-18T11:42:32;101025.03;;;15.71;33.72
17311;BME280;8773;43.300;0.394;2023-02-18T11:45:00;101020.13;;;15.93;34.89
17311;BME280;8773;43.300;0.394;2023-02-18T11:47:34;101011.00;;;16.12;34.06
17311;BME280;8773;43.300;0.394;2023-02-18T11:50:20;101015.78;;;16.34;33.09
17311;BME280;8773;43.300;0.394;2023-02-18T11:52:50;101001.19;;;16.45;32.80
17311;BME280;8773;43.300;0.394;2023-02-18T11:55:21;100996.00;;;16.51;32.68
17311;BME280;8773;43.300;0.394;2023-02-18T11:57:55;100995.16;;;16.51;32.70
17311;BME280;8773;43.300;0.394;2023-02-18T12:00:34;100995.00;;;16.60;33.32
17311;BME280;8773;43.300;0.394;2023-02-18T12:03:21;100994.53;;;16.65;33.49
17311;BME280;8773;43.300;0.394;2023-02-18T12:05:53;100986.66;;;16.72;33.18
17311;BME280;8773;43.300;0.394;2023-02-18T12:08:24;100986.81;;;16.78;33.40
17311;BME280;8773;43.300;0.394;2023-02-18T12:10:59;100981.75;;;16.83;32.67
17311;BME280;8773;43.300;0.394;2023-02-18T12:13:33;100973.00;;;16.89;32.55
17311;BME280;8773;43.300;0.394;2023-02-18T12:16:09;100966.78;;;16.89;32.64
17311;BME280;8773;43.300;0.394;2023-02-18T12:18:53;100961.75;;;17.10;32.96
17311;BME280;8773;43.300;0.394;2023-02-18T12:21:35;100958.53;;;17.15;32.77
17311;BME280;8773;43.300;0.394;2023-02-18T12:24:17;100956.81;;;17.22;32.54
17311;BME280;8773;43.300;0.394;2023-02-18T12:26:53;100950.75;;;17.28;32.69
17311;BME280;8773;43.300;0.394;2023-02-18T12:29:51;100948.03;;;17.36;32.59
17311;BME280;8773;43.300;0.394;2023-02-18T12:32:34;100951.41;;;17.38;32.40
17311;BME280;8773;43.300;0.394;2023-02-18T12:35:22;100946.69;;;17.40;32.96
17311;BME280;8773;43.300;0.394;2023-02-18T12:38:16;100942.28;;;17.55;32.89
17311;BME280;8773;43.300;0.394;2023-02-18T12:41:01;100929.97;;;17.61;32.52
17311;BME280;8773;43.300;0.394;2023-02-18T12:43:43;100928.94;;;17.70;32.67
17311;BME280;8773;43.300;0.394;2023-02-18T12:46:29;100929.78;;;17.70;32.30
17311;BME280;8773;43.300;0.394;2023-02-18T12:49:19;100924.03;;;17.74;32.38
17311;BME280;8773;43.300;0.394;2023-02-18T12:52:04;100927.41;;;17.76;32.02
17311;BME280;8773;43.300;0.394;2023-02-18T12:54:43;100927.91;;;17.79;32.57
17311;BME280;8773;43.300;0.394;2023-02-18T12:57:33;100920.28;;;17.83;31.89
17311;BME280;8773;43.300;0.394;2023-02-18T13:06:22;100905.94;;;17.82;32.39
17311;BME280;8773;43.300;0.394;2023-02-18T13:09:03;100902.88;;;17.93;32.29
17311;BME280;8773;43.300;0.394;2023-02-18T13:11:42;100899.91;;;18.03;32.09
17311;BME280;8773;43.300;0.394;2023-02-18T13:14:18;100890.59;;;18.14;31.76
17311;BME280;8773;43.300;0.394;2023-02-18T13:16:50;100890.53;;;18.22;31.57
17311;BME280;8773;43.300;0.394;2023-02-18T13:19:21;100880.22;;;18.25;31.85
17311;BME280;8773;43.300;0.394;2023-02-18T13:21:54;100889.97;;;18.34;31.73
17311;BME280;8773;43.300;0.394;2023-02-18T13:24:30;100873.41;;;18.38;31.32
17311;BME280;8773;43.300;0.394;2023-02-18T13:27:05;100875.84;;;18.47;31.40
17311;BME280;8773;43.300;0.394;2023-02-18T13:29:40;100874.97;;;18.55;30.83
17311;BME280;8773;43.300;0.394;2023-02-18T13:32:17;100874.25;;;18.61;30.99
17311;BME280;8773;43.300;0.394;2023-02-18T13:34:51;100866.81;;;18.63;31.24
17311;BME280;8773;43.300;0.394;2023-02-18T13:37:29;100872.16;;;18.71;31.43
17311;BME280;8773;43.300;0.394;2023-02-18T13:40:00;100863.69;;;18.74;31.35
17311;BME280;8773;43.300;0.394;2023-02-18T13:42:36;100862.06;;;18.88;31.55
17311;BME280;8773;43.300;0.394;2023-02-18T13:45:29;100859.53;;;18.86;31.05